Bible Grove, Illinois
Current Conditions -  °F | °C
As of 9:20 PM on Wednesday 22 Oct 2014 (Local Time) from KFOA Reporting Station
Clear Clear  
Wind Chill:   Ceiling: Unl
Heat Index:   Visibility: 10mi
Dew Point:   Wind: 0mph
Humidity: 90%   Direction: NA
Pressure: 30.25"   Gusts: NA
Location:  38.8267°N, 88.5024°W
Report Text: KFOA 230220Z AUTO 00000KT 10SM CLR 07/05 A3025 RMK AO2 T00670052
Loading
Personal Weather Stations






























Interactive Weather Map
Tropical Storm Tracking
New forecast layout! Learn more

10-Day Weather Forecast

Advertisements
Track Severe Weather on mobile